Date,TemperatureHighF,TemperatureAvgF,TemperatureLowF,DewpointHighF,DewpointAvgF,DewpointLowF,HumidityHigh,HumidityAvg,HumidityLow,PressureMaxIn,PressureMinIn,WindSpeedMaxMPH,WindSpeedAvgMPH,GustSpeedMaxMPH,PrecipitationSumIn
2013-1-1,21.0,17.1,10.0,16.0,9.0,1.0,85,70,57,30.29,30.16,9,5,0,0.00
2013-1-2,30.0,19.3,5.0,19.0,9.9,0.0,84,67,50,30.24,30.12,12,8,0,0.00
2013-1-3,36.0,27.6,19.0,25.0,19.8,9.0,92,73,58,30.39,30.18,13,8,21,0.00
2013-1-4,37.0,20.9,14.0,21.0,13.3,7.0,85,73,51,30.38,30.27,12,7,17,0.00
2013-1-5,39.0,33.6,27.0,34.0,26.7,18.0,93,75,68,30.27,30.06,15,10,18,0.00
2013-1-6,37.0,29.9,23.0,30.0,20.2,18.0,79,66,51,30.35,30.06,18,9,28,0.00
2013-1-7,43.0,29.4,21.0,25.0,19.7,16.0,85,67,44,30.34,30.10,17,9,24,0.00
2013-1-8,50.0,40.4,32.0,27.0,23.9,23.0,69,52,34,30.14,30.02,14,9,16,0.00
2013-1-9,52.0,41.3,36.0,32.0,30.2,27.0,80,66,40,30.39,30.12,10,8,0,0.00
2013-1-10,46.0,44.0,39.0,45.0,40.6,25.0,93,87,48,30.23,29.78,13,7,20,0.20
2013-1-11,59.0,52.7,46.0,50.0,46.0,43.0,93,79,54,29.80,29.68,21,12,28,0.01
2013-1-12,57.0,40.7,27.0,43.0,29.4,21.0,86,64,43,30.04,29.72,18,11,25,0.00
2013-1-13,27.0,21.1,16.0,23.0,11.2,7.0,86,65,49,30.34,29.96,15,10,18,0.00
2013-1-14,28.0,18.4,10.0,9.0,6.1,1.0,85,60,30,30.50,30.34,6,3,0,0.00
2013-1-15,32.0,21.9,12.0,12.0,9.8,7.0,85,60,34,30.42,30.14,8,2,0,0.00
2013-1-16,43.0,29.8,16.0,25.0,15.8,9.0,78,57,33,30.16,29.97,16,9,24,0.04
2013-1-17,37.0,33.5,27.0,30.0,20.5,12.0,92,60,34,30.46,30.10,14,8,21,0.00
2013-1-18,54.0,38.9,25.0,27.0,22.7,18.0,79,54,30,30.45,30.05,21,14,30,0.00
2013-1-19,43.0,43.0,43.0,25.0,25.0,25.0,48,48,48,30.05,30.05,10,10,0,0.00
2013-1-20,23.0,21.4,19.0,10.0,8.9,7.0,67,58,49,30.34,30.32,13,9,17,0.00
2013-1-21,19.0,18.5,18.0,10.0,10.0,10.0,72,70,67,30.33,30.32,12,10,0,0.00
2013-1-22,18.0,14.2,9.0,7.0,0.3,-6.0,72,54,47,30.47,30.34,9,2,0,0.00
2013-1-23,41.0,24.7,10.0,18.0,11.5,3.0,78,58,35,30.41,30.14,18,8,24,0.00
2013-1-24,25.0,18.6,12.0,5.0,0.8,-4.0,61,45,32,30.60,30.24,15,9,21,0.00
2013-1-25,45.0,32.5,25.0,21.0,12.8,5.0,63,45,28,30.24,30.09,15,7,20,0.00
2013-1-26,39.0,28.6,16.0,21.0,9.0,5.0,68,45,23,30.39,30.23,9,5,16,0.00
2013-1-27,52.0,38.4,30.0,48.0,31.6,14.0,93,78,46,30.26,29.85,15,9,21,0.11
2013-1-28,72.0,60.9,52.0,57.0,54.0,48.0,93,78,60,29.92,29.77,16,9,22,0.00
2013-1-29,64.0,57.8,39.0,59.0,53.8,37.0,93,87,67,29.77,29.44,21,8,29,1.52
2013-1-30,39.0,32.2,27.0,37.0,26.0,12.0,93,77,54,29.88,29.35,29,15,37,0.15
2013-1-31,27.0,15.8,9.0,12.0,1.2,-6.0,62,51,44,30.39,29.88,24,17,32,0.00
2013-2-1,28.0,16.0,5.0,18.0,1.0,-6.0,79,52,35,30.45,30.16,16,9,22,0.00
2013-2-2,36.0,30.9,27.0,25.0,16.7,10.0,92,55,43,30.16,30.03,17,9,25,0.00
2013-2-3,34.0,29.5,25.0,27.0,16.8,10.0,92,60,40,30.21,29.94,21,10,31,0.00
2013-2-4,45.0,33.5,28.0,27.0,20.3,12.0,74,58,45,30.00,29.79,18,8,21,0.00
2013-2-5,50.0,35.8,27.0,30.0,25.9,19.0,86,69,43,30.12,29.88,17,8,23,0.00
2013-2-6,55.0,40.2,27.0,30.0,26.6,21.0,92,63,26,30.20,30.01,14,6,17,0.00
2013-2-7,45.0,40.8,34.0,41.0,35.9,28.0,93,84,52,30.10,29.87,18,8,28,0.35
2013-2-8,34.0,33.1,32.0,32.0,28.2,27.0,93,82,74,30.38,30.10,16,7,23,0.00
2013-2-9,43.0,35.4,30.0,34.0,27.1,25.0,86,71,52,30.34,29.97,14,8,18,0.04
2013-2-10,63.0,47.1,37.0,50.0,37.2,25.0,93,72,26,29.98,29.44,30,16,46,0.23
2013-2-11,46.0,39.1,30.0,27.0,22.8,19.0,80,52,39,30.15,29.72,37,18,46,0.00
2013-2-12,43.0,33.7,27.0,25.0,23.6,19.0,86,67,38,30.16,29.94,6,2,0,0.00
2013-2-13,48.0,39.0,28.0,30.0,26.7,25.0,86,62,45,29.94,29.79,17,8,21,0.00
2013-2-14,50.0,42.4,36.0,30.0,27.2,23.0,74,55,39,30.08,29.77,22,11,27,0.00
2013-2-15,39.0,31.2,23.0,25.0,12.9,5.0,74,48,25,30.30,30.08,15,10,22,0.00
2013-2-16,34.0,24.4,18.0,16.0,11.1,7.0,73,57,36,30.27,30.14,12,6,0,0.00
2013-2-17,48.0,34.8,25.0,27.0,16.9,12.0,73,50,23,30.14,29.82,14,8,21,0.00
2013-2-18,57.0,44.2,28.0,46.0,32.2,16.0,93,63,47,29.90,29.47,27,16,37,0.20
2013-2-19,28.0,24.3,19.0,16.0,9.8,5.0,63,53,36,30.31,29.90,25,15,33,0.00
2013-2-20,23.0,18.5,10.0,12.0,6.2,1.0,73,58,48,30.43,30.29,13,5,0,0.00
2013-2-21,21.0,19.3,19.0,12.0,11.7,10.0,73,71,67,30.32,30.30,5,4,0,0.00
2013-2-25,46.0,41.4,39.0,30.0,25.7,21.0,69,54,36,30.04,29.80,17,9,23,0.00
2013-2-26,36.0,34.4,32.0,34.0,31.6,30.0,93,90,86,29.67,29.45,14,9,20,0.11
2013-2-27,34.0,32.8,32.0,32.0,29.5,27.0,100,88,80,29.90,29.67,16,11,21,0.08
2013-2-28,34.0,31.9,30.0,30.0,27.2,25.0,92,82,69,30.12,29.89,16,11,20,0.00
2013-3-1,34.0,29.4,27.0,27.0,23.4,16.0,92,77,63,30.25,30.09,12,8,18,0.01
2013-3-2,34.0,27.1,19.0,23.0,16.2,12.0,86,64,40,30.29,30.21,15,7,20,0.00
2013-3-3,36.0,27.4,16.0,21.0,16.3,10.0,85,64,43,30.21,30.00,8,4,0,0.00
2013-3-4,48.0,37.9,34.0,30.0,25.6,21.0,74,62,36,30.00,29.78,15,10,22,0.00
2013-3-5,36.0,33.1,30.0,32.0,25.9,18.0,100,76,51,30.18,29.86,24,15,35,0.01
2013-3-6,36.0,30.0,21.0,21.0,19.0,16.0,79,64,51,30.38,30.18,24,10,30,0.00
2013-3-7,43.0,30.5,18.0,28.0,20.4,14.0,92,68,41,30.41,30.30,10,4,0,0.00
2013-3-8,52.0,40.6,30.0,30.0,27.5,25.0,86,61,34,30.37,30.15,13,8,18,0.00
2013-3-9,59.0,47.5,39.0,43.0,34.9,28.0,93,64,35,30.15,29.73,16,9,22,0.76
2013-3-10,54.0,49.6,39.0,50.0,46.7,37.0,93,90,76,29.76,29.58,18,7,23,0.61
2013-3-11,39.0,33.9,32.0,37.0,29.3,23.0,93,84,64,29.96,29.70,21,14,29,0.00
2013-3-12,43.0,31.6,27.0,27.0,22.7,19.0,86,70,52,30.22,29.95,23,12,31,0.00
2013-3-13,39.0,31.9,25.0,21.0,15.6,10.0,68,51,30,30.43,30.22,17,10,27,0.00
2013-3-14,61.0,42.2,28.0,34.0,23.7,16.0,68,49,31,30.38,30.06,17,-15,23,0.00
2013-3-15,73.0,53.3,36.0,46.0,35.4,27.0,75,53,25,30.09,29.65,14,5,17,0.00
2013-3-16,52.0,41.5,37.0,43.0,33.3,28.0,93,72,60,30.09,29.64,15,8,22,0.00
2013-3-17,39.0,35.7,34.0,32.0,27.4,23.0,93,72,51,30.11,29.82,14,8,21,0.10
2013-3-18,50.0,39.4,32.0,36.0,29.1,16.0,93,70,29,30.02,29.71,28,12,38,0.01
2013-3-19,45.0,35.4,28.0,19.0,12.5,5.0,55,39,22,30.21,30.01,18,10,23,0.00
2013-3-20,36.0,28.6,21.0,25.0,10.3,1.0,69,47,26,30.29,30.13,22,12,29,0.00
2013-3-21,39.0,27.3,16.0,14.0,8.7,3.0,67,47,23,30.13,29.98,8,3,0,0.00
2013-3-22,41.0,33.3,25.0,23.0,17.4,14.0,73,52,35,30.05,29.99,9,3,0,0.00
2013-3-23,52.0,42.7,36.0,32.0,21.4,16.0,80,45,25,30.06,29.89,12,5,20,0.00
2013-3-24,37.0,32.1,32.0,32.0,29.9,28.0,92,91,80,29.94,29.71,20,13,24,0.00
2013-3-25,36.0,32.4,30.0,30.0,25.5,19.0,92,77,51,30.20,29.88,17,11,24,0.00
2013-3-26,41.0,34.4,30.0,23.0,21.3,19.0,74,59,44,30.34,30.20,14,8,0,0.05
2013-3-27,45.0,35.9,25.0,25.0,20.5,18.0,79,55,35,30.39,30.29,8,3,0,0.00
2013-3-28,54.0,43.9,36.0,30.0,26.3,21.0,65,50,36,30.34,30.24,12,6,16,0.00
2013-3-29,63.0,48.9,36.0,39.0,33.3,30.0,80,57,31,30.27,30.19,9,5,0,0.00
2013-3-30,55.0,48.9,45.0,46.0,39.7,-99.9,87,74,50,30.20,29.92,20,8,29,0.00
2013-3-31,66.0,54.0,45.0,48.0,38.7,23.0,93,61,27,30.00,29.86,18,9,24,0.00
2013-4-1,46.0,39.4,32.0,27.0,17.3,9.0,63,42,22,30.27,30.00,16,10,25,0.00
2013-4-2,50.0,38.1,25.0,21.0,13.6,5.0,73,40,16,30.36,30.27,10,4,0,0.00
2013-4-3,52.0,40.2,30.0,21.0,15.6,9.0,59,39,18,30.42,30.26,10,4,18,0.00
2013-4-4,61.0,48.7,34.0,25.0,19.8,14.0,64,34,18,30.26,30.04,9,2,0,0.00
2013-4-5,66.0,54.6,41.0,32.0,25.7,18.0,70,36,17,30.18,29.98,12,5,17,0.00
2013-4-6,73.0,61.4,55.0,39.0,32.0,28.0,44,33,21,29.98,29.68,29,15,38,0.00
2013-4-7,79.0,65.0,48.0,50.0,37.1,32.0,70,38,18,29.93,29.75,12,4,17,0.00
2013-4-8,75.0,66.1,55.0,57.0,54.6,48.0,87,67,50,29.83,29.65,20,7,41,0.57
2013-4-9,79.0,70.9,66.0,59.0,55.8,54.0,68,59,47,29.84,29.76,22,11,31,0.00
2013-4-10,72.0,57.8,48.0,59.0,51.9,45.0,93,82,60,29.88,29.64,23,10,41,0.55
2013-4-11,48.0,43.1,39.0,46.0,36.8,28.0,93,79,64,29.72,29.65,21,12,27,0.00
2013-4-12,45.0,40.3,37.0,32.0,30.2,28.0,80,67,56,29.98,29.69,20,12,25,0.00
2013-4-13,57.0,48.3,36.0,36.0,31.3,25.0,80,52,37,30.06,29.87,15,-18,22,0.00
2013-4-14,81.0,65.6,52.0,55.0,39.3,32.0,93,41,18,29.87,29.53,24,14,41,0.36
2013-4-15,59.0,54.9,43.0,57.0,46.1,34.0,93,72,54,30.00,29.71,12,5,17,0.26
2013-4-16,50.0,46.2,43.0,39.0,37.0,34.0,86,71,53,30.19,29.97,12,6,17,0.43
2013-4-17,59.0,50.9,46.0,55.0,45.4,36.0,93,82,57,30.16,29.73,24,-6,37,0.18
2013-4-18,61.0,51.0,39.0,59.0,45.7,28.0,93,82,64,29.78,29.53,25,14,38,1.19
2013-4-19,48.0,41.6,37.0,28.0,25.2,21.0,69,52,34,30.06,29.75,28,17,35,0.03
2013-4-20,50.0,39.9,30.0,28.0,23.7,18.0,80,54,29,30.32,30.06,8,4,0,0.00
2013-4-21,66.0,54.0,43.0,36.0,32.0,27.0,60,44,27,30.37,30.21,15,9,20,0.00
2013-4-22,72.0,61.0,50.0,39.0,32.8,28.0,53,35,19,30.25,29.96,14,8,18,0.00
2013-4-23,61.0,46.3,39.0,48.0,38.9,36.0,93,77,41,30.06,29.92,16,9,24,0.19
2013-4-24,54.0,43.2,36.0,36.0,29.4,23.0,93,61,30,30.21,30.04,16,10,23,0.03
2013-4-25,63.0,52.2,39.0,34.0,27.7,23.0,75,42,21,30.33,30.18,17,8,24,0.00
2013-4-26,61.0,56.1,52.0,46.0,39.5,27.0,76,54,32,30.33,30.23,23,10,29,0.00
2013-4-27,54.0,51.3,46.0,50.0,47.2,41.0,93,86,71,30.28,29.98,8,3,0,0.15
2013-4-28,64.0,56.0,52.0,52.0,49.5,48.0,93,80,55,29.98,29.88,9,6,0,0.01
2013-4-29,84.0,67.7,50.0,59.0,51.6,46.0,93,61,30,29.90,29.70,23,10,28,0.00
2013-4-30,86.0,75.3,64.0,57.0,50.8,43.0,77,45,22,29.91,29.73,21,11,27,0.00
2013-5-1,84.0,74.1,63.0,52.0,47.1,41.0,63,40,23,30.11,29.91,13,-7,17,0.00
2013-5-2,61.0,48.3,39.0,46.0,39.1,36.0,93,71,57,30.24,30.10,18,13,24,0.24
2013-5-3,43.0,39.2,37.0,39.0,37.1,34.0,93,91,86,30.17,29.79,17,12,24,1.44
2013-5-4,48.0,44.3,39.0,45.0,41.2,37.0,93,88,81,30.04,29.79,8,2,0,0.02
2013-5-5,70.0,56.0,45.0,57.0,50.4,43.0,93,81,52,30.04,29.92,16,5,23,0.00
2013-5-6,77.0,63.8,52.0,55.0,50.6,45.0,93,65,33,30.05,29.97,14,6,20,0.00
2013-5-7,81.0,68.5,54.0,50.0,41.7,32.0,76,43,17,30.06,29.99,9,4,0,0.00
2013-5-8,81.0,68.3,57.0,57.0,49.1,37.0,72,52,27,30.05,29.97,13,5,23,0.00
2013-5-9,73.0,64.4,61.0,63.0,59.0,52.0,93,82,59,29.97,29.84,13,-1,38,0.89
2013-5-10,61.0,57.0,50.0,59.0,50.8,-99.9,93,83,72,30.03,29.85,15,-7,20,0.00
2013-5-11,64.0,54.6,45.0,52.0,36.0,-99.9,93,57,23,30.19,30.00,24,10,32,0.00
2013-5-12,63.0,51.0,39.0,28.0,25.0,19.0,60,38,19,30.26,30.14,15,6,20,0.00
2013-5-13,73.0,59.2,39.0,41.0,34.0,25.0,75,41,20,30.21,29.98,13,6,17,0.00
2013-5-14,90.0,74.7,57.0,55.0,48.7,39.0,67,42,22,29.98,29.77,18,11,25,0.00
2013-5-15,88.0,78.3,68.0,66.0,54.5,46.0,82,44,33,29.91,29.81,23,9,51,0.50
2013-5-16,86.0,65.1,64.0,66.0,36.2,-99.9,93,68,40,29.94,29.85,17,-3,23,0.03
2013-5-17,79.0,68.9,59.0,63.0,52.6,-99.9,87,66,50,29.98,29.92,8,4,0,0.00
2013-5-18,84.0,73.3,63.0,68.0,63.0,59.0,93,71,45,30.01,29.87,10,6,16,0.00
2013-5-19,91.0,79.2,70.0,70.0,64.0,57.0,82,61,37,29.89,29.65,16,10,24,0.00
2013-5-20,82.0,71.4,63.0,66.0,60.3,54.0,93,69,37,29.86,29.67,24,11,32,0.21
2013-5-23,64.0,61.2,55.0,54.0,52.0,48.0,81,71,63,30.25,30.07,12,8,20,0.00
2013-5-24,70.0,59.3,46.0,50.0,41.1,36.0,93,54,28,30.42,30.25,12,5,16,0.00
2013-5-25,68.0,59.2,54.0,54.0,47.7,39.0,93,66,47,30.35,30.16,15,7,22,0.70
2013-5-26,77.0,62.6,54.0,64.0,52.5,46.0,88,69,53,30.18,29.98,12,7,18,0.00
2013-5-27,75.0,68.8,64.0,64.0,63.0,59.0,93,82,57,29.98,29.71,15,5,20,0.28
2013-5-28,79.0,73.8,63.0,70.0,65.8,59.0,94,76,60,29.97,29.74,23,10,36,0.14
2013-5-29,88.0,73.3,63.0,64.0,60.9,57.0,93,68,40,29.95,29.78,20,10,31,0.11
2013-5-30,84.0,72.9,64.0,66.0,62.0,57.0,88,69,45,29.87,29.75,27,14,41,1.17
2013-5-31,66.0,38.9,63.0,63.0,-1.8,-99.9,93,55,82,29.90,29.69,14,7,21,0.44
2013-6-1,-200.0,0.0,200.0,-99.9,-99.9,-99.9,0,0,100,29.80,29.70,18,10,25,0.00
2013-6-2,-200.0,0.0,200.0,-99.9,-99.9,-99.9,0,0,100,30.06,29.92,13,6,16,0.00
2013-6-3,-200.0,0.0,200.0,-99.9,-99.9,-99.9,0,0,100,30.13,30.00,9,3,0,0.00
2013-6-4,-200.0,0.0,200.0,-99.9,-99.9,-99.9,0,0,100,30.11,29.99,10,5,16,0.00
2013-6-5,77.0,28.0,68.0,64.0,-37.4,-99.9,88,27,53,30.04,29.90,7,3,0,0.05
2013-6-6,75.0,68.5,61.0,64.0,55.0,46.0,93,65,35,29.93,29.87,14,0,20,0.00
2013-6-7,77.0,65.2,55.0,57.0,52.5,48.0,93,65,38,29.97,29.91,13,5,16,0.00
2013-6-8,81.0,68.7,54.0,59.0,51.7,46.0,100,58,31,29.98,29.89,9,4,0,0.00
2013-6-9,75.0,68.3,63.0,64.0,57.5,50.0,93,69,52,29.92,29.78,20,0,27,0.08
2013-6-10,79.0,69.4,63.0,63.0,60.6,57.0,93,74,47,29.91,29.78,9,4,0,0.00
2013-6-11,90.0,76.8,63.0,70.0,64.5,59.0,93,67,40,29.94,29.83,15,7,23,0.00
2013-6-12,95.0,82.0,68.0,70.0,66.8,64.0,94,62,36,29.92,29.71,22,10,33,0.00
2013-6-13,86.0,74.7,66.0,61.0,56.1,48.0,77,55,27,30.03,29.81,23,8,35,0.00
2013-6-14,81.0,70.8,61.0,66.0,59.5,55.0,93,69,41,30.15,29.91,16,4,23,0.02
2013-6-15,91.0,76.5,68.0,72.0,64.8,57.0,93,70,43,30.09,29.91,22,8,35,0.20
2013-6-16,82.0,74.7,68.0,72.0,67.3,64.0,94,79,54,30.03,29.92,9,4,0,0.08
2013-6-17,84.0,76.2,68.0,73.0,66.9,63.0,94,74,48,30.00,29.92,9,2,0,0.00
2013-6-18,84.0,72.8,66.0,68.0,62.2,54.0,94,72,37,30.01,29.93,12,6,16,0.00
2013-6-19,88.0,74.0,64.0,64.0,56.9,52.0,77,57,30,30.10,30.01,7,3,0,0.00
2013-6-20,91.0,80.3,66.0,64.0,60.5,57.0,72,52,33,30.11,30.03,13,6,18,0.00
2013-6-21,93.0,85.7,75.0,70.0,67.3,64.0,69,55,43,30.07,29.95,15,9,22,0.00
2013-6-22,95.0,82.1,73.0,70.0,66.5,61.0,78,59,38,30.04,29.96,14,9,22,0.00
2013-6-23,91.0,75.3,70.0,68.0,64.6,61.0,88,70,43,30.04,29.85,17,8,23,0.08
2013-6-24,91.0,81.3,70.0,70.0,67.5,64.0,88,65,43,30.06,29.87,15,9,21,0.00
2013-6-25,93.0,83.3,75.0,72.0,68.5,66.0,78,61,43,29.94,29.81,16,9,23,0.00
2013-6-26,88.0,80.2,72.0,75.0,69.6,63.0,88,70,55,29.84,29.76,20,7,27,0.09
2013-6-27,90.0,80.2,72.0,68.0,64.4,61.0,78,60,38,29.94,29.84,15,6,22,0.00
2013-6-28,84.0,75.8,70.0,66.0,60.6,46.0,82,61,26,29.89,29.75,15,7,23,0.00
2013-6-29,81.0,71.2,64.0,64.0,57.8,54.0,88,64,41,29.82,29.70,28,9,36,0.07
2013-6-30,77.0,69.4,64.0,63.0,59.8,55.0,93,72,47,30.00,29.82,14,6,21,0.06
2013-7-1,81.0,70.6,61.0,63.0,52.5,46.0,88,54,31,30.06,30.00,10,6,21,0.00
2013-7-2,79.0,70.2,61.0,61.0,50.8,46.0,72,51,31,30.09,30.03,12,4,20,0.00
2013-7-3,84.0,71.4,61.0,59.0,54.9,52.0,82,58,32,30.08,30.01,9,3,0,0.00
2013-7-4,88.0,72.7,61.0,63.0,57.4,52.0,93,62,29,30.10,30.01,7,4,0,0.00
2013-7-5,88.0,74.9,66.0,61.0,58.2,55.0,72,57,33,30.08,30.00,8,5,0,0.00
2013-7-6,91.0,76.4,68.0,66.0,61.9,57.0,88,64,31,30.05,29.96,12,6,0,0.00
2013-7-7,93.0,78.5,70.0,64.0,62.3,59.0,73,58,36,30.03,29.98,13,7,16,0.00
2013-7-8,93.0,80.8,75.0,70.0,65.2,63.0,83,60,41,30.08,30.00,12,6,0,0.00
2013-7-9,95.0,84.3,77.0,70.0,68.0,66.0,78,59,41,30.05,29.90,12,6,17,0.00
2013-7-10,91.0,79.3,72.0,72.0,61.8,-99.9,78,58,33,30.05,29.87,15,6,22,0.00
2013-7-11,86.0,70.7,61.0,59.0,55.8,52.0,88,61,33,30.11,30.05,7,2,0,0.00
2013-7-12,84.0,68.2,63.0,59.0,56.3,46.0,88,67,26,30.15,30.07,8,2,0,0.00
2013-7-13,88.0,72.6,59.0,59.0,55.2,52.0,87,57,31,30.13,30.05,8,3,0,0.00
2013-7-14,90.0,77.8,66.0,64.0,60.5,57.0,88,57,33,30.17,30.08,9,5,0,0.00
2013-7-15,95.0,80.0,72.0,75.0,68.2,63.0,88,69,36,30.25,30.16,13,3,17,0.18
2013-7-16,95.0,83.5,73.0,72.0,69.2,64.0,88,64,36,30.31,30.24,9,4,0,0.00
2013-7-17,97.0,82.6,75.0,73.0,69.2,64.0,88,65,34,30.35,30.22,6,3,0,0.00
2013-7-18,93.0,82.5,77.0,72.0,69.1,64.0,83,65,38,30.24,30.02,7,4,0,0.00
2013-7-19,93.0,81.8,75.0,70.0,66.7,63.0,78,61,38,30.03,29.87,9,6,0,0.00
2013-7-20,90.0,80.9,70.0,68.0,62.8,-99.9,82,56,37,29.94,29.87,9,4,0,0.00
2013-7-21,82.0,73.5,66.0,73.0,68.1,64.0,94,84,58,29.94,29.83,10,3,18,0.25
2013-7-22,91.0,77.3,64.0,73.0,68.0,63.0,100,76,43,29.89,29.78,10,3,0,0.00
2013-7-23,88.0,76.8,66.0,73.0,61.8,57.0,93,61,42,29.96,29.79,10,5,17,0.00
2013-7-24,82.0,69.9,63.0,59.0,54.6,50.0,82,60,34,30.06,29.94,10,4,17,0.00
2013-7-25,84.0,68.7,57.0,61.0,55.0,52.0,93,65,32,30.14,30.05,9,2,0,0.00
2013-7-26,82.0,73.5,66.0,68.0,61.0,54.0,83,65,51,30.08,29.94,14,6,20,0.02
2013-7-27,77.0,62.4,57.0,55.0,52.9,41.0,87,72,27,30.06,29.99,13,6,20,0.00
2013-7-28,75.0,57.4,52.0,50.0,47.9,45.0,87,73,33,30.08,30.02,9,3,0,0.00
2013-7-29,82.0,65.3,54.0,63.0,54.6,48.0,93,70,32,30.16,30.08,10,2,0,0.00
2013-7-30,82.0,73.5,66.0,72.0,66.4,61.0,94,79,58,30.13,30.01,9,4,0,0.48
2013-7-31,79.0,72.3,66.0,72.0,66.1,63.0,94,82,57,30.09,30.03,9,4,0,0.01
2013-8-1,88.0,73.8,64.0,66.0,61.6,52.0,93,69,29,30.10,29.98,7,3,0,0.00
2013-8-2,86.0,73.9,66.0,70.0,64.6,61.0,94,73,51,30.00,29.93,13,5,18,0.49
2013-8-3,84.0,72.1,64.0,68.0,62.0,54.0,94,74,34,30.16,29.97,8,2,0,0.00
2013-8-4,82.0,70.4,59.0,63.0,57.1,54.0,93,65,37,30.21,30.09,8,2,0,0.00
2013-8-5,81.0,74.3,68.0,68.0,62.6,57.0,88,67,57,30.11,29.87,12,6,16,0.00
2013-8-6,88.0,77.8,70.0,73.0,69.3,66.0,94,76,48,29.92,29.84,9,4,0,0.00
2013-8-7,88.0,77.0,72.0,73.0,71.2,66.0,94,82,58,29.97,29.80,10,4,0,0.00
2013-8-8,82.0,73.0,64.0,68.0,65.2,63.0,93,77,54,30.02,29.95,7,3,0,0.00
2013-8-9,82.0,74.7,68.0,68.0,64.0,59.0,93,71,47,30.09,30.00,6,1,0,0.00
2013-8-10,84.0,73.3,64.0,66.0,57.0,48.0,88,60,28,30.19,30.09,10,3,17,0.00
2013-8-11,90.0,71.3,61.0,61.0,56.9,54.0,87,63,31,30.17,30.05,8,2,0,0.00
2013-8-12,82.0,73.9,66.0,72.0,63.2,57.0,88,69,57,30.08,29.96,15,3,0,0.63
2013-8-13,81.0,68.6,61.0,63.0,54.4,-99.9,93,65,36,30.17,30.01,9,4,0,0.00
2013-8-14,79.0,61.7,52.0,57.0,46.3,-99.9,93,64,25,30.24,30.15,6,1,0,0.00
2013-8-15,77.0,59.5,57.0,59.0,36.3,-99.9,88,58,33,30.20,30.10,8,1,0,0.00
2013-8-16,81.0,66.4,59.0,57.0,47.9,-99.9,87,60,32,30.20,30.13,10,3,0,0.00
2013-8-17,82.0,67.6,57.0,61.0,50.9,-99.9,93,62,30,30.22,30.14,8,2,0,0.00
2013-8-18,86.0,70.4,57.0,63.0,56.2,52.0,93,64,33,30.21,30.11,6,1,0,0.00
2013-8-19,90.0,70.7,64.0,66.0,45.8,-99.9,88,57,31,30.15,30.04,9,3,0,0.00
2013-8-20,90.0,76.6,70.0,64.0,58.4,-99.9,82,59,33,30.12,30.03,8,5,0,0.00
2013-8-21,93.0,79.2,66.0,66.0,62.1,57.0,93,60,29,30.12,30.03,12,5,0,0.00
2013-8-22,90.0,79.6,70.0,73.0,67.3,63.0,88,68,40,30.12,30.04,9,4,0,0.00
2013-8-23,91.0,79.3,72.0,73.0,66.1,63.0,88,66,38,30.13,30.07,8,5,0,0.00
2013-8-24,93.0,79.1,70.0,68.0,62.4,-99.9,88,61,36,30.22,30.11,9,5,0,0.00
2013-8-25,91.0,78.0,70.0,64.0,62.6,57.0,78,60,33,30.27,30.16,10,6,0,0.00
2013-8-26,97.0,80.1,70.0,70.0,64.5,59.0,88,61,30,30.20,30.05,9,6,0,0.00
2013-8-27,97.0,79.7,72.0,70.0,66.3,55.0,88,67,25,30.09,30.01,15,8,20,0.00
2013-8-28,99.0,91.3,79.0,63.0,60.0,57.0,54,36,25,30.04,29.99,14,8,17,0.00
2013-8-29,99.0,82.0,75.0,72.0,63.8,57.0,69,55,26,30.07,29.97,8,5,0,0.00
2013-8-30,100.0,84.6,75.0,72.0,67.4,59.0,88,60,25,29.98,29.83,14,6,20,0.00
2013-8-31,99.0,84.9,77.0,70.0,64.2,-99.9,78,53,34,29.84,29.76,13,5,17,0.00
2013-9-1,90.0,77.9,70.0,75.0,67.3,55.0,94,72,33,29.90,29.80,9,3,0,0.00
2013-9-2,84.0,72.3,63.0,59.0,54.2,48.0,88,56,28,30.02,29.90,8,5,16,0.00
2013-9-3,82.0,66.1,54.0,55.0,50.6,45.0,93,61,26,30.12,30.02,6,2,0,0.00
2013-9-4,88.0,67.2,55.0,57.0,51.0,45.0,87,59,22,30.18,30.07,6,1,0,0.00
2013-9-5,91.0,70.9,63.0,57.0,54.7,52.0,77,59,26,30.21,30.14,7,3,0,0.00
2013-9-6,86.0,73.1,66.0,61.0,57.4,55.0,77,59,35,30.19,30.03,7,4,0,0.00
2013-9-7,93.0,74.0,63.0,61.0,53.8,-99.9,82,54,28,30.04,29.91,10,5,0,0.00
2013-9-8,95.0,81.4,72.0,72.0,66.0,59.0,94,61,34,29.98,29.88,15,8,23,0.01
2013-9-9,93.0,78.1,73.0,70.0,66.4,57.0,88,69,34,29.97,29.89,13,7,0,0.00
2013-9-10,91.0,77.8,72.0,63.0,60.6,55.0,73,56,35,30.08,29.97,8,6,0,0.00
2013-9-11,86.0,78.4,73.0,64.0,59.8,55.0,61,53,35,30.13,30.04,7,5,0,0.00
2013-9-12,86.0,72.6,64.0,68.0,57.4,41.0,94,62,31,30.13,30.07,13,5,18,0.11
2013-9-13,75.0,61.2,54.0,52.0,46.8,32.0,87,61,23,30.20,30.11,10,3,16,0.00
2013-9-14,77.0,60.7,50.0,46.0,38.9,-99.9,81,50,22,30.18,30.02,8,4,0,0.00
2013-9-15,73.0,65.2,59.0,64.0,52.4,39.0,88,65,47,30.18,29.97,15,8,17,0.07
2013-9-16,72.0,62.7,55.0,57.0,53.6,50.0,93,73,46,30.33,30.18,8,4,16,0.00
2013-9-17,68.0,62.2,57.0,63.0,57.1,54.0,88,82,67,30.27,30.08,9,4,0,0.00
2013-9-18,68.0,66.8,64.0,64.0,62.6,61.0,88,86,77,30.08,30.02,9,6,0,0.00
2013-9-19,91.0,79.9,70.0,66.0,63.7,59.0,88,60,35,29.95,29.82,18,10,31,0.16
2013-9-20,73.0,67.5,57.0,66.0,57.0,45.0,93,71,37,29.97,29.89,13,6,17,0.07
2013-9-21,73.0,58.9,50.0,50.0,43.1,-99.9,93,62,28,30.02,29.93,13,4,17,0.00
2013-9-22,77.0,60.8,46.0,50.0,44.9,41.0,93,61,27,30.04,29.94,8,2,0,0.00
2013-9-23,77.0,64.7,52.0,52.0,47.5,45.0,93,57,31,30.03,29.92,13,5,16,0.00
2013-9-24,82.0,68.7,55.0,63.0,52.5,45.0,88,58,37,29.95,29.80,12,6,20,0.00
2013-9-25,82.0,69.4,59.0,63.0,58.3,55.0,93,70,41,29.92,29.82,8,3,0,0.00
2013-9-26,86.0,70.8,61.0,59.0,56.2,54.0,88,63,33,30.01,29.89,12,5,0,0.00
2013-9-27,84.0,72.4,64.0,59.0,54.6,50.0,77,54,39,30.09,29.99,9,6,16,0.00
2013-9-28,79.0,68.3,61.0,70.0,57.6,-99.9,94,72,49,30.07,29.93,15,8,23,0.19
2013-9-29,77.0,61.2,50.0,57.0,47.0,37.0,93,65,25,30.11,30.00,7,2,0,0.00
2013-9-30,81.0,65.6,50.0,59.0,49.5,39.0,88,58,36,30.00,29.88,13,6,18,0.00
2013-10-1,72.0,69.8,68.0,61.0,60.4,59.0,77,72,64,30.00,29.96,6,0,0,0.00
2013-10-2,88.0,72.8,64.0,70.0,62.9,57.0,94,73,37,30.06,29.94,9,5,0,0.00
2013-10-3,86.0,74.4,70.0,68.0,65.1,61.0,88,74,42,29.95,29.81,29,8,36,0.00
2013-10-4,91.0,78.1,70.0,70.0,64.6,57.0,94,67,33,29.95,29.87,16,9,21,0.00
2013-10-5,77.0,64.9,50.0,68.0,59.2,46.0,93,82,68,29.94,29.86,13,8,18,0.13
2013-10-6,54.0,49.4,43.0,46.0,41.5,36.0,93,75,53,29.90,29.82,17,9,24,0.03
2013-10-7,73.0,59.4,52.0,46.0,42.1,36.0,81,56,25,30.13,29.90,12,7,0,0.00
2013-10-8,79.0,61.4,48.0,46.0,42.0,37.0,87,55,22,30.18,30.10,10,7,16,0.00
2013-10-9,77.0,61.3,50.0,45.0,42.3,37.0,81,52,25,30.17,30.10,9,4,0,0.00
2013-10-10,81.0,62.6,52.0,54.0,49.0,45.0,93,64,28,30.14,29.99,8,4,0,0.00
2013-10-11,81.0,66.5,57.0,59.0,53.2,45.0,93,66,28,30.01,29.87,14,7,21,0.00
2013-10-12,75.0,63.8,54.0,61.0,43.7,-99.9,88,53,19,30.24,29.91,15,7,21,0.00
2013-10-13,72.0,55.2,45.0,37.0,31.3,21.0,70,43,14,30.42,30.24,6,2,0,0.00
2013-10-14,72.0,57.1,46.0,48.0,35.0,30.0,67,45,24,30.37,30.03,10,6,17,0.01
2013-10-15,68.0,61.2,50.0,63.0,50.6,37.0,93,70,42,30.03,29.88,17,9,21,0.24
2013-10-16,55.0,51.0,45.0,41.0,37.2,36.0,75,60,50,30.05,29.98,14,8,18,0.00
2013-10-17,66.0,54.0,46.0,48.0,41.0,34.0,93,65,29,30.01,29.88,17,6,24,0.04
2013-10-18,55.0,47.7,41.0,41.0,36.5,28.0,93,68,37,30.07,29.92,14,8,25,0.03
2013-10-19,59.0,45.2,37.0,39.0,32.5,-99.9,93,67,28,30.03,29.89,15,9,27,0.00
2013-10-20,73.0,54.6,41.0,39.0,34.8,28.0,86,53,19,29.92,29.78,17,10,28,0.00
2013-10-21,61.0,49.3,43.0,39.0,32.2,25.0,70,52,32,30.05,29.89,12,6,18,0.00
2013-10-22,59.0,44.1,36.0,43.0,35.1,30.0,86,70,47,30.04,29.80,23,9,33,0.02
2013-10-23,48.0,39.6,34.0,37.0,31.8,19.0,93,75,31,30.13,30.04,10,6,16,0.00
2013-10-24,43.0,38.8,32.0,36.0,26.8,18.0,86,63,35,30.40,30.13,17,8,23,0.00
2013-10-25,50.0,36.1,30.0,27.0,22.7,18.0,80,60,31,30.48,30.16,8,4,0,0.00
2013-10-26,55.0,44.6,39.0,34.0,23.3,-99.9,57,45,22,30.16,30.03,16,8,23,0.00
2013-10-27,54.0,40.2,30.0,28.0,24.0,21.0,80,54,27,30.15,29.99,6,2,0,0.00
2013-10-28,64.0,46.4,39.0,30.0,23.3,-99.9,60,44,22,30.24,30.04,7,4,0,0.00
2013-10-29,59.0,52.6,46.0,54.0,44.2,30.0,93,73,43,30.23,30.05,10,6,16,0.06
2013-10-30,68.0,62.8,55.0,66.0,60.2,54.0,93,90,87,30.06,29.77,13,6,20,0.58
2013-10-31,66.0,56.5,46.0,63.0,54.2,43.0,93,91,81,29.77,29.43,15,9,22,1.06
2013-11-1,59.0,49.1,45.0,45.0,40.2,36.0,93,72,41,29.86,29.58,15,9,20,0.00
2013-11-2,54.0,46.0,39.0,39.0,31.5,-99.9,81,60,37,30.18,29.85,16,8,23,0.00
2013-11-3,55.0,45.7,36.0,34.0,30.2,28.0,93,57,40,30.25,30.09,13,6,22,0.00
2013-11-4,61.0,54.7,48.0,43.0,37.5,32.0,58,52,44,30.17,30.05,16,10,22,0.00
2013-11-5,59.0,56.2,54.0,55.0,52.0,43.0,93,85,58,30.21,29.92,17,9,24,0.29
2013-11-6,59.0,47.0,36.0,57.0,42.0,30.0,93,83,70,30.29,29.86,18,10,29,0.41
2013-11-7,55.0,40.4,30.0,36.0,29.3,25.0,92,67,32,30.35,30.28,13,6,20,0.00
2013-11-8,57.0,43.3,28.0,32.0,26.9,23.0,92,56,26,30.34,29.98,17,8,22,0.00
2013-11-9,61.0,50.8,48.0,37.0,31.0,-99.9,61,49,35,30.28,29.98,17,11,23,0.00
2013-11-10,55.0,43.4,36.0,32.0,27.3,23.0,74,53,28,30.44,30.25,9,5,0,0.00
2013-11-11,55.0,42.7,30.0,43.0,29.9,19.0,86,61,42,30.58,30.16,16,10,29,0.00
2013-11-12,32.0,25.3,19.0,19.0,12.1,7.0,73,58,34,30.81,30.58,10,5,18,0.00
2013-11-13,45.0,29.1,19.0,16.0,11.2,7.0,79,50,20,30.69,30.23,15,8,20,0.00
2013-11-14,50.0,39.1,34.0,19.0,16.3,12.0,51,39,25,30.23,30.00,17,12,24,0.00
2013-11-15,59.0,48.8,41.0,41.0,29.4,19.0,76,47,33,30.02,29.86,17,8,22,0.00
2013-11-16,66.0,58.4,50.0,57.0,48.6,-99.9,87,72,63,29.86,29.54,24,14,33,0.05
2013-11-17,75.0,59.9,45.0,61.0,50.5,34.0,88,71,43,29.98,29.33,31,14,55,0.06
2013-11-18,48.0,42.6,37.0,37.0,31.1,25.0,80,64,39,30.30,29.98,18,7,24,0.00
2013-11-19,52.0,39.9,34.0,27.0,24.2,21.0,74,54,29,30.34,30.18,10,6,16,0.00
2013-11-20,46.0,40.4,39.0,37.0,29.1,23.0,93,65,48,30.18,29.98,13,9,20,0.43
2013-11-21,52.0,47.8,41.0,46.0,40.6,36.0,93,77,57,30.28,30.04,14,5,16,0.36
2013-11-22,39.0,34.0,27.0,37.0,28.7,21.0,93,81,64,30.57,30.28,16,10,22,0.02
2013-11-23,28.0,22.8,14.0,21.0,10.0,-99.9,85,61,39,30.75,30.56,15,9,24,0.00
2013-11-24,30.0,19.0,10.0,10.0,7.0,3.0,85,61,31,30.75,30.38,8,4,0,0.00
2013-11-25,37.0,32.7,27.0,19.0,12.6,9.0,63,43,32,30.38,30.15,13,8,16,0.00
2013-11-26,37.0,29.1,21.0,25.0,16.2,7.0,79,59,40,30.29,30.10,18,10,27,0.00
2013-11-27,30.0,20.6,14.0,10.0,7.1,3.0,72,55,31,30.39,30.18,13,7,16,0.00
2013-11-28,43.0,31.0,23.0,18.0,14.1,10.0,63,50,33,30.52,30.16,16,8,21,0.00
2013-11-29,45.0,33.0,21.0,23.0,18.0,14.0,79,55,30,30.57,30.33,9,4,0,0.00
2013-11-30,57.0,42.8,34.0,32.0,27.0,-99.9,75,56,35,30.33,30.08,14,7,18,0.00
2013-12-1,54.0,41.1,32.0,36.0,30.3,28.0,100,68,37,30.13,29.92,6,2,0,0.00
2013-12-2,55.0,44.3,37.0,39.0,33.2,28.0,86,65,43,29.93,29.65,9,4,0,0.00
2013-12-3,59.0,48.9,39.0,50.0,43.9,37.0,93,83,67,29.66,29.58,13,7,16,0.00
2013-12-4,63.0,50.9,30.0,52.0,44.2,21.0,93,79,55,29.90,29.49,18,9,25,0.00
2013-12-5,30.0,24.4,21.0,21.0,10.2,5.0,68,54,45,30.32,29.90,21,12,24,0.00
2013-12-6,21.0,17.4,12.0,7.0,1.6,-4.0,61,49,34,30.62,30.32,14,9,18,0.00
2013-12-7,25.0,14.0,7.0,3.0,-1.6,-99.9,78,54,27,30.73,30.46,9,5,0,0.00
2013-12-8,27.0,22.8,18.0,23.0,14.6,1.0,92,71,44,30.46,30.00,13,6,0,0.00
2013-12-9,25.0,18.5,12.0,21.0,9.0,3.0,85,66,53,30.33,30.07,15,9,18,0.00
2013-12-10,34.0,22.1,9.0,12.0,5.1,-2.0,72,49,29,30.29,30.15,18,9,24,0.00
2013-12-11,27.0,20.2,7.0,18.0,6.9,-6.0,68,56,34,30.63,30.25,16,8,24,0.00
2013-12-12,41.0,26.8,5.0,14.0,7.2,-4.0,71,45,25,30.61,30.21,14,8,20,0.00
2013-12-13,37.0,31.4,25.0,32.0,24.0,16.0,93,75,40,30.21,29.94,10,6,0,0.34
2013-12-14,34.0,28.7,21.0,32.0,25.0,-99.9,100,90,79,30.16,29.87,10,5,0,0.00
2013-12-15,30.0,23.6,16.0,25.0,18.8,12.0,92,82,63,30.17,30.02,6,3,0,0.00
2013-12-16,27.0,24.8,19.0,25.0,22.4,18.0,92,90,85,30.14,30.00,9,4,0,0.00
2013-12-17,41.0,30.3,23.0,28.0,21.5,12.0,92,72,43,30.26,30.13,14,8,18,0.10
2013-12-18,48.0,36.2,21.0,32.0,21.5,12.0,68,55,41,30.25,29.85,20,11,28,0.10
2013-12-19,57.0,49.7,43.0,45.0,39.0,32.0,71,66,54,29.87,29.72,14,9,18,0.00
2013-12-20,54.0,39.8,32.0,50.0,36.9,28.0,100,90,71,29.88,29.70,14,8,18,0.10
2013-12-21,32.0,29.9,30.0,30.0,26.3,-99.9,92,90,86,29.88,29.61,8,5,0,0.00
2013-12-22,32.0,28.6,19.0,32.0,25.5,12.0,100,88,73,30.30,29.65,13,8,22,0.00
2013-12-23,21.0,13.3,5.0,14.0,5.2,-6.0,79,69,60,30.58,30.30,14,8,16,0.00
2013-12-24,23.0,12.2,0.0,14.0,2.4,-9.0,77,64,55,30.58,30.29,12,6,17,0.00
2013-12-25,34.0,29.3,23.0,30.0,25.1,14.0,92,84,67,30.30,30.20,15,8,20,0.00
2013-12-26,46.0,33.6,21.0,32.0,25.8,19.0,92,74,52,30.31,30.18,18,9,23,0.26
2013-12-27,54.0,40.3,30.0,32.0,29.5,27.0,92,67,37,30.33,30.17,12,8,0,0.00
2013-12-28,55.0,42.3,34.0,30.0,26.2,-99.9,80,57,35,30.19,29.88,17,10,22,0.00
2013-12-29,41.0,24.6,10.0,30.0,13.7,-6.0,86,63,43,30.30,29.86,22,13,29,0.00
2013-12-30,28.0,15.9,5.0,10.0,-1.9,-9.0,65,45,29,30.34,30.15,9,5,0,0.00
2013-12-31,43.0,28.0,18.0,23.0,15.8,10.0,79,61,38,30.36,30.10,12,6,0,0.00
2014-1-1,27.0,21.5,18.0,19.0,15.4,12.0,85,76,67,30.17,30.09,10,6,17,0.00
2014-1-2,19.0,12.6,1.0,12.0,3.4,-6.0,85,66,52,30.47,30.17,16,9,20,0.00